PWSweather.com
Personal Weather Stations
Station Observations
KCANORTH19
Rocking L Ranch, North Fork, CA

Rocking L RanchNorth Fork, CA

Lat: 37.248, Lon: -119.56

Elevation: 3093

Station Type: Davis Vantage Pro 2

Latest ConditionsUpdated 12:55:06 PM PST Sunday, Nov 23, 2014
Currently Today's Max Today's Min Today's Average
Temperature 51.6°F10.9°C 51.6°F10.9°C 35.7°F2.1°C 41.7°F5.4°C
Dew Point 47.3°F8.5°C 47.3°F8.5°C 33.1°F0.6°C 38.7°F3.7°C
Winds Calm Calm 8.0 mph WSW12.9 kmh WSW - 0.3 mph 0.5 kmh
Wind Gusts 5.0 mph8.0 kmh 8.0 mph12.9 kmh - -
Humidity 85% 92% 81% 89%
Pressure 30.28 in1025.4 mb 30.32 in1026.8 mb 30.15 in1021.0 mb -
Hour Temp Dew Point Humidity Winds Wind Gusts Pressure Precip Precip Rate Daily Precip Total
12:55 PM 51.6°F10.9°C 47.3°F8.5°C 85% Calm Calm 5.0 mph8.0 kmh 30.28 in1025.4 mb 0.00 in0.0 mm 0.00 in/hr0.0 mm/hr 0.01 in0.3 mm
12:50 PM 51.5°F10.8°C 46.8°F8.2°C 84% 1.0 mph W1.6 kmh W 3.0 mph4.8 kmh 30.27 in1025.1 mb 0.00 in0.0 mm 0.00 in/hr0.0 mm/hr 0.01 in0.3 mm
12:45 PM 51.0°F10.6°C 47.3°F8.5°C 87% Calm Calm 3.0 mph4.8 kmh 30.28 in1025.4 mb 0.00 in0.0 mm 0.00 in/hr0.0 mm/hr 0.01 in0.3 mm
12:40 PM 50.4°F10.2°C 46.4°F8.0°C 86% Calm Calm 3.0 mph4.8 kmh 30.29 in1025.7 mb 0.00 in0.0 mm 0.00 in/hr0.0 mm/hr 0.01 in0.3 mm
12:35 PM 50.4°F10.2°C 46.4°F8.0°C 86% 1.0 mph W1.6 kmh W 3.0 mph4.8 kmh 30.29 in1025.7 mb 0.00 in0.0 mm 0.00 in/hr0.0 mm/hr 0.01 in0.3 mm
12:30 PM 50.4°F10.2°C 46.7°F8.2°C 87% 3.0 mph W4.8 kmh W 6.0 mph9.7 kmh 30.29 in1025.7 mb 0.00 in0.0 mm 0.00 in/hr0.0 mm/hr 0.01 in0.3 mm
12:25 PM 50.7°F10.4°C 47.0°F8.3°C 87% 3.0 mph W4.8 kmh W 6.0 mph9.7 kmh 30.29 in1025.7 mb 0.00 in0.0 mm 0.00 in/hr0.0 mm/hr 0.01 in0.3 mm
12:20 PM 50.3°F10.2°C 46.9°F8.3°C 88% Calm Calm 6.0 mph9.7 kmh 30.30 in1026.1 mb 0.00 in0.0 mm 0.00 in/hr0.0 mm/hr 0.01 in0.3 mm
12:15 PM 49.7°F9.8°C 46.3°F7.9°C 88% 2.0 mph SW3.2 kmh SW 6.0 mph9.7 kmh 30.30 in1026.1 mb 0.00 in0.0 mm 0.00 in/hr0.0 mm/hr 0.01 in0.3 mm
12:10 PM 49.8°F9.9°C 46.7°F8.2°C 89% 4.0 mph WSW6.4 kmh WSW 6.0 mph9.7 kmh 30.31 in1026.4 mb 0.00 in0.0 mm 0.00 in/hr0.0 mm/hr 0.01 in0.3 mm
12:05 PM 49.6°F9.8°C 46.5°F8.1°C 89% Calm Calm 4.0 mph6.4 kmh 30.31 in1026.4 mb 0.00 in0.0 mm 0.00 in/hr0.0 mm/hr 0.01 in0.3 mm
12:00 PM 49.3°F9.6°C 46.2°F7.9°C 89% Calm Calm 6.0 mph9.7 kmh 30.31 in1026.4 mb 0.00 in0.0 mm 0.00 in/hr0.0 mm/hr 0.01 in0.3 mm
11:55 AM 49.1°F9.5°C 46.3°F7.9°C 90% Calm Calm 6.0 mph9.7 kmh 30.32 in1026.8 mb 0.00 in0.0 mm 0.00 in/hr0.0 mm/hr 0.01 in0.3 mm
11:50 AM 49.0°F9.4°C 45.9°F7.7°C 89% Calm Calm 6.0 mph9.7 kmh 30.31 in1026.4 mb 0.00 in0.0 mm 0.00 in/hr0.0 mm/hr 0.01 in0.3 mm
11:45 AM 49.1°F9.5°C 46.0°F7.8°C 89% 1.0 mph WSW1.6 kmh WSW 6.0 mph9.7 kmh 30.32 in1026.8 mb 0.00 in0.0 mm 0.00 in/hr0.0 mm/hr 0.01 in0.3 mm
11:40 AM 49.2°F9.6°C 45.8°F7.7°C 88% 3.0 mph WSW4.8 kmh WSW 6.0 mph9.7 kmh 30.32 in1026.8 mb 0.00 in0.0 mm 0.00 in/hr0.0 mm/hr 0.01 in0.3 mm
11:35 AM 49.6°F9.8°C 46.2°F7.9°C 88% 1.0 mph W1.6 kmh W 5.0 mph8.0 kmh 30.31 in1026.4 mb 0.00 in0.0 mm 0.00 in/hr0.0 mm/hr 0.01 in0.3 mm
11:30 AM 49.9°F9.9°C 46.5°F8.1°C 88% Calm Calm 8.0 mph12.9 kmh 30.31 in1026.4 mb 0.00 in0.0 mm 0.00 in/hr0.0 mm/hr 0.01 in0.3 mm
11:25 AM 49.7°F9.8°C 46.0°F7.8°C 87% 2.0 mph WSW3.2 kmh WSW 8.0 mph12.9 kmh 30.31 in1026.4 mb 0.00 in0.0 mm 0.00 in/hr0.0 mm/hr 0.01 in0.3 mm
11:20 AM 50.0°F10.0°C 46.3°F7.9°C 87% 1.0 mph WSW1.6 kmh WSW 8.0 mph12.9 kmh 30.31 in1026.4 mb 0.00 in0.0 mm 0.00 in/hr0.0 mm/hr 0.01 in0.3 mm
11:15 AM 50.3°F10.2°C 46.6°F8.1°C 87% 8.0 mph WSW12.9 kmh WSW 8.0 mph12.9 kmh 30.31 in1026.4 mb 0.00 in0.0 mm 0.00 in/hr0.0 mm/hr 0.01 in0.3 mm
11:10 AM 50.1°F10.1°C 46.1°F7.8°C 86% 3.0 mph W4.8 kmh W 5.0 mph8.0 kmh 30.31 in1026.4 mb 0.00 in0.0 mm 0.00 in/hr0.0 mm/hr 0.01 in0.3 mm
11:05 AM 50.2°F10.1°C 46.2°F7.9°C 86% 1.0 mph W1.6 kmh W 4.0 mph6.4 kmh 30.31 in1026.4 mb 0.00 in0.0 mm 0.00 in/hr0.0 mm/hr 0.01 in0.3 mm
11:00 AM 50.1°F10.1°C 45.8°F7.7°C 85% Calm Calm 3.0 mph4.8 kmh 30.31 in1026.4 mb 0.00 in0.0 mm 0.00 in/hr0.0 mm/hr 0.01 in0.3 mm
10:55 AM 50.2°F10.1°C 46.2°F7.9°C 86% Calm Calm 3.0 mph4.8 kmh 30.31 in1026.4 mb 0.00 in0.0 mm 0.00 in/hr0.0 mm/hr 0.01 in0.3 mm
10:50 AM 50.5°F10.3°C 46.2°F7.9°C 85% Calm Calm 3.0 mph4.8 kmh 30.30 in1026.1 mb 0.00 in0.0 mm 0.00 in/hr0.0 mm/hr 0.01 in0.3 mm
10:45 AM 50.5°F10.3°C 46.2°F7.9°C 85% Calm Calm 3.0 mph4.8 kmh 30.31 in1026.4 mb 0.00 in0.0 mm 0.00 in/hr0.0 mm/hr 0.01 in0.3 mm
10:40 AM 50.5°F10.3°C 45.5°F7.5°C 83% Calm Calm 3.0 mph4.8 kmh 30.30 in1026.1 mb 0.00 in0.0 mm 0.00 in/hr0.0 mm/hr 0.01 in0.3 mm
10:35 AM 50.6°F10.3°C 45.3°F7.4°C 82% 1.0 mph SE1.6 kmh SE 1.0 mph1.6 kmh 30.30 in1026.1 mb 0.00 in0.0 mm 0.00 in/hr0.0 mm/hr 0.01 in0.3 mm
10:30 AM 50.4°F10.2°C 45.4°F7.4°C 83% Calm Calm 4.0 mph6.4 kmh 30.30 in1026.1 mb 0.00 in0.0 mm 0.00 in/hr0.0 mm/hr 0.01 in0.3 mm
10:25 AM 50.3°F10.2°C 44.7°F7.1°C 81% Calm Calm 4.0 mph6.4 kmh 30.30 in1026.1 mb 0.00 in0.0 mm 0.00 in/hr0.0 mm/hr 0.01 in0.3 mm
10:20 AM 50.4°F10.2°C 45.4°F7.4°C 83% 1.0 mph SSE1.6 kmh SSE 4.0 mph6.4 kmh 30.30 in1026.1 mb 0.00 in0.0 mm 0.00 in/hr0.0 mm/hr 0.01 in0.3 mm
10:15 AM 50.2°F10.1°C 45.6°F7.6°C 84% Calm Calm 3.0 mph4.8 kmh 30.30 in1026.1 mb 0.00 in0.0 mm 0.00 in/hr0.0 mm/hr 0.01 in0.3 mm
10:10 AM 50.2°F10.1°C 45.6°F7.6°C 84% Calm Calm 3.0 mph4.8 kmh 30.30 in1026.1 mb 0.00 in0.0 mm 0.00 in/hr0.0 mm/hr 0.01 in0.3 mm
10:05 AM 50.1°F10.1°C 45.2°F7.3°C 83% Calm Calm 1.0 mph1.6 kmh 30.30 in1026.1 mb 0.00 in0.0 mm 0.00 in/hr0.0 mm/hr 0.01 in0.3 mm
10:00 AM 50.1°F10.1°C 44.8°F7.1°C 82% Calm Calm 5.0 mph8.0 kmh 30.31 in1026.4 mb 0.00 in0.0 mm 0.00 in/hr0.0 mm/hr 0.01 in0.3 mm
09:55 AM 50.3°F10.2°C 45.7°F7.6°C 84% Calm Calm 5.0 mph8.0 kmh 30.31 in1026.4 mb 0.00 in0.0 mm 0.00 in/hr0.0 mm/hr 0.01 in0.3 mm
09:50 AM 50.6°F10.3°C 45.3°F7.4°C 82% 2.0 mph SE3.2 kmh SE 5.0 mph8.0 kmh 30.31 in1026.4 mb 0.00 in0.0 mm 0.00 in/hr0.0 mm/hr 0.01 in0.3 mm
09:45 AM 50.6°F10.3°C 46.3°F7.9°C 85% 1.0 mph S1.6 kmh S 5.0 mph8.0 kmh 30.31 in1026.4 mb 0.00 in0.0 mm 0.00 in/hr0.0 mm/hr 0.01 in0.3 mm
09:40 AM 49.7°F9.8°C 45.4°F7.4°C 85% 1.0 mph SSE1.6 kmh SSE 2.0 mph3.2 kmh 30.30 in1026.1 mb 0.00 in0.0 mm 0.00 in/hr0.0 mm/hr 0.01 in0.3 mm
09:35 AM 49.0°F9.4°C 44.7°F7.1°C 85% Calm Calm 1.0 mph1.6 kmh 30.31 in1026.4 mb 0.00 in0.0 mm 0.00 in/hr0.0 mm/hr 0.01 in0.3 mm
09:30 AM 49.2°F9.6°C 45.8°F7.7°C 88% Calm Calm 4.0 mph6.4 kmh 30.30 in1026.1 mb 0.00 in0.0 mm 0.00 in/hr0.0 mm/hr 0.01 in0.3 mm
09:25 AM 49.1°F9.5°C 46.3°F7.9°C 90% Calm Calm 4.0 mph6.4 kmh 30.30 in1026.1 mb 0.00 in0.0 mm 0.00 in/hr0.0 mm/hr 0.01 in0.3 mm
09:20 AM 47.9°F8.8°C 45.1°F7.3°C 90% Calm Calm 4.0 mph6.4 kmh 30.29 in1025.7 mb 0.00 in0.0 mm 0.00 in/hr0.0 mm/hr 0.01 in0.3 mm
09:15 AM 46.9°F8.3°C 44.1°F6.7°C 90% Calm Calm 2.0 mph3.2 kmh 30.28 in1025.4 mb 0.00 in0.0 mm 0.00 in/hr0.0 mm/hr 0.01 in0.3 mm
09:10 AM 46.6°F8.1°C 44.1°F6.7°C 91% Calm Calm 2.0 mph3.2 kmh 30.28 in1025.4 mb 0.00 in0.0 mm 0.00 in/hr0.0 mm/hr 0.01 in0.3 mm
09:05 AM 46.0°F7.8°C 43.8°F6.6°C 92% 1.0 mph SSE1.6 kmh SSE 2.0 mph3.2 kmh 30.29 in1025.7 mb 0.00 in0.0 mm 0.00 in/hr0.0 mm/hr 0.01 in0.3 mm
09:00 AM 45.1°F7.3°C 42.9°F6.1°C 92% Calm Calm 4.0 mph6.4 kmh 30.28 in1025.4 mb 0.00 in0.0 mm 0.00 in/hr0.0 mm/hr 0.01 in0.3 mm
08:55 AM 44.7°F7.1°C 42.5°F5.8°C 92% Calm Calm 4.0 mph6.4 kmh 30.28 in1025.4 mb 0.00 in0.0 mm 0.00 in/hr0.0 mm/hr 0.01 in0.3 mm
08:50 AM 44.4°F6.9°C 42.2°F5.7°C 92% 1.0 mph ESE1.6 kmh ESE 4.0 mph6.4 kmh 30.28 in1025.4 mb 0.00 in0.0 mm 0.00 in/hr0.0 mm/hr 0.01 in0.3 mm
08:45 AM 44.1°F6.7°C 41.9°F5.5°C 92% 1.0 mph WNW1.6 kmh WNW 3.0 mph4.8 kmh 30.28 in1025.4 mb 0.00 in0.0 mm 0.00 in/hr0.0 mm/hr 0.01 in0.3 mm
08:40 AM 43.5°F6.4°C 41.3°F5.2°C 92% Calm Calm 2.0 mph3.2 kmh 30.28 in1025.4 mb 0.00 in0.0 mm 0.00 in/hr0.0 mm/hr 0.01 in0.3 mm
08:35 AM 43.1°F6.2°C 40.9°F4.9°C 92% Calm Calm 1.0 mph1.6 kmh 30.28 in1025.4 mb 0.00 in0.0 mm 0.00 in/hr0.0 mm/hr 0.01 in0.3 mm
08:30 AM 42.5°F5.8°C 40.3°F4.6°C 92% 1.0 mph WNW1.6 kmh WNW 5.0 mph8.0 kmh 30.27 in1025.1 mb 0.00 in0.0 mm 0.00 in/hr0.0 mm/hr 0.01 in0.3 mm
08:25 AM 41.8°F5.4°C 39.7°F4.3°C 92% Calm Calm 5.0 mph8.0 kmh 30.27 in1025.1 mb 0.00 in0.0 mm 0.00 in/hr0.0 mm/hr 0.01 in0.3 mm
08:20 AM 42.4°F5.8°C 40.3°F4.6°C 92% Calm Calm 5.0 mph8.0 kmh 30.26 in1024.7 mb 0.00 in0.0 mm 0.00 in/hr0.0 mm/hr 0.01 in0.3 mm
08:15 AM 38.8°F3.8°C 36.4°F2.4°C 91% 2.0 mph WNW3.2 kmh WNW 5.0 mph8.0 kmh 30.26 in1024.7 mb 0.00 in0.0 mm 0.00 in/hr0.0 mm/hr 0.01 in0.3 mm
08:10 AM 37.3°F2.9°C 34.9°F1.6°C 91% Calm Calm 1.0 mph1.6 kmh 30.26 in1024.7 mb 0.00 in0.0 mm 0.00 in/hr0.0 mm/hr 0.01 in0.3 mm
08:05 AM 36.9°F2.7°C 34.5°F1.4°C 91% Calm Calm 1.0 mph1.6 kmh 30.25 in1024.4 mb 0.00 in0.0 mm 0.00 in/hr0.0 mm/hr 0.01 in0.3 mm
08:00 AM 36.7°F2.6°C 34.3°F1.3°C 91% Calm Calm -- 30.24 in1024.0 mb 0.00 in0.0 mm 0.00 in/hr0.0 mm/hr 0.01 in0.3 mm
07:55 AM 36.4°F2.4°C 34.0°F1.1°C 91% Calm Calm -- 30.24 in1024.0 mb 0.00 in0.0 mm 0.00 in/hr0.0 mm/hr 0.01 in0.3 mm
07:50 AM 36.2°F2.3°C 33.8°F1.0°C 91% Calm Calm -- 30.24 in1024.0 mb 0.00 in0.0 mm 0.00 in/hr0.0 mm/hr 0.01 in0.3 mm
07:45 AM 36.0°F2.2°C 33.6°F0.9°C 91% Calm Calm -- 30.23 in1023.7 mb 0.00 in0.0 mm 0.00 in/hr0.0 mm/hr 0.01 in0.3 mm
07:40 AM 36.0°F2.2°C 33.6°F0.9°C 91% Calm Calm -- 30.23 in1023.7 mb 0.00 in0.0 mm 0.00 in/hr0.0 mm/hr 0.01 in0.3 mm
07:35 AM 36.0°F2.2°C 33.6°F0.9°C 91% Calm Calm -- 30.23 in1023.7 mb 0.00 in0.0 mm 0.00 in/hr0.0 mm/hr 0.01 in0.3 mm
07:30 AM 36.0°F2.2°C 33.6°F0.9°C 91% Calm Calm 1.0 mph1.6 kmh 30.22 in1023.4 mb 0.00 in0.0 mm 0.00 in/hr0.0 mm/hr 0.01 in0.3 mm
07:25 AM 35.9°F2.2°C 33.5°F0.8°C 91% Calm Calm 1.0 mph1.6 kmh 30.23 in1023.7 mb 0.00 in0.0 mm 0.00 in/hr0.0 mm/hr 0.01 in0.3 mm
07:20 AM 35.8°F2.1°C 33.2°F0.7°C 90% Calm Calm -- 30.23 in1023.7 mb 0.00 in0.0 mm 0.00 in/hr0.0 mm/hr 0.01 in0.3 mm
07:15 AM 35.7°F2.1°C 33.1°F0.6°C 90% Calm Calm -- 30.23 in1023.7 mb 0.00 in0.0 mm 0.00 in/hr0.0 mm/hr 0.01 in0.3 mm
07:10 AM 35.7°F2.1°C 33.1°F0.6°C 90% Calm Calm -- 30.23 in1023.7 mb 0.00 in0.0 mm 0.00 in/hr0.0 mm/hr 0.01 in0.3 mm
07:05 AM 35.7°F2.1°C 33.1°F0.6°C 90% Calm Calm -- 30.22 in1023.4 mb 0.00 in0.0 mm 0.00 in/hr0.0 mm/hr 0.01 in0.3 mm
07:00 AM 35.7°F2.1°C 33.1°F0.6°C 90% Calm Calm 3.0 mph4.8 kmh 30.22 in1023.4 mb 0.00 in0.0 mm 0.00 in/hr0.0 mm/hr 0.01 in0.3 mm
06:55 AM 35.9°F2.2°C 33.3°F0.7°C 90% Calm Calm -- 30.22 in1023.4 mb 0.00 in0.0 mm 0.00 in/hr0.0 mm/hr 0.01 in0.3 mm
06:50 AM 35.9°F2.2°C 33.3°F0.7°C 90% Calm Calm -- 30.22 in1023.4 mb 0.00 in0.0 mm 0.00 in/hr0.0 mm/hr 0.01 in0.3 mm
06:45 AM 35.9°F2.2°C 33.3°F0.7°C 90% Calm Calm -- 30.22 in1023.4 mb 0.00 in0.0 mm 0.00 in/hr0.0 mm/hr 0.01 in0.3 mm
06:40 AM 36.0°F2.2°C 33.4°F0.8°C 90% Calm Calm -- 30.22 in1023.4 mb 0.00 in0.0 mm 0.00 in/hr0.0 mm/hr 0.01 in0.3 mm
06:35 AM 36.0°F2.2°C 33.4°F0.8°C 90% Calm Calm -- 30.21 in1023.0 mb 0.00 in0.0 mm 0.00 in/hr0.0 mm/hr 0.01 in0.3 mm
06:30 AM 35.9°F2.2°C 33.3°F0.7°C 90% Calm Calm -- 30.22 in1023.4 mb 0.01 in0.3 mm 0.00 in/hr0.0 mm/hr 0.01 in0.3 mm
06:25 AM 35.9°F2.2°C 33.3°F0.7°C 90% Calm Calm -- 30.21 in1023.0 mb 0.01 in0.3 mm 0.00 in/hr0.0 mm/hr 0.01 in0.3 mm
06:20 AM 35.9°F2.2°C 33.3°F0.7°C 90% Calm Calm -- 30.21 in1023.0 mb 0.01 in0.3 mm 0.00 in/hr0.0 mm/hr 0.01 in0.3 mm
06:15 AM 35.9°F2.2°C 33.3°F0.7°C 90% Calm Calm -- 30.20 in1022.7 mb 0.01 in0.3 mm 0.00 in/hr0.0 mm/hr 0.01 in0.3 mm
06:10 AM 35.9°F2.2°C 33.3°F0.7°C 90% Calm Calm -- 30.20 in1022.7 mb 0.01 in0.3 mm 0.00 in/hr0.0 mm/hr 0.01 in0.3 mm
06:05 AM 35.9°F2.2°C 33.3°F0.7°C 90% Calm Calm -- 30.20 in1022.7 mb 0.01 in0.3 mm 0.00 in/hr0.0 mm/hr 0.01 in0.3 mm
06:00 AM 35.9°F2.2°C 33.3°F0.7°C 90% Calm Calm -- 30.21 in1023.0 mb 0.01 in0.3 mm 0.00 in/hr0.0 mm/hr 0.01 in0.3 mm
05:55 AM 36.0°F2.2°C 33.4°F0.8°C 90% Calm Calm 2.0 mph3.2 kmh 30.20 in1022.7 mb 0.01 in0.3 mm 0.00 in/hr0.0 mm/hr 0.01 in0.3 mm
05:50 AM 36.0°F2.2°C 33.4°F0.8°C 90% Calm Calm 1.0 mph1.6 kmh 30.20 in1022.7 mb 0.01 in0.3 mm 0.00 in/hr0.0 mm/hr 0.01 in0.3 mm
05:45 AM 36.1°F2.3°C 33.5°F0.8°C 90% Calm Calm -- 30.19 in1022.4 mb 0.01 in0.3 mm 0.00 in/hr0.0 mm/hr 0.01 in0.3 mm
05:40 AM 36.1°F2.3°C 33.5°F0.8°C 90% Calm Calm -- 30.19 in1022.4 mb 0.01 in0.3 mm 0.00 in/hr0.0 mm/hr 0.01 in0.3 mm
05:35 AM 36.2°F2.3°C 33.6°F0.9°C 90% Calm Calm -- 30.19 in1022.4 mb 0.01 in0.3 mm 0.00 in/hr0.0 mm/hr 0.01 in0.3 mm
05:30 AM 36.3°F2.4°C 33.7°F0.9°C 90% Calm Calm -- 30.19 in1022.4 mb 0.01 in0.3 mm 0.00 in/hr0.0 mm/hr 0.01 in0.3 mm
05:25 AM 36.3°F2.4°C 33.7°F0.9°C 90% Calm Calm -- 30.18 in1022.0 mb 0.01 in0.3 mm 0.00 in/hr0.0 mm/hr 0.01 in0.3 mm
05:20 AM 36.4°F2.4°C 33.8°F1.0°C 90% Calm Calm -- 30.18 in1022.0 mb 0.01 in0.3 mm 0.00 in/hr0.0 mm/hr 0.01 in0.3 mm
05:15 AM 36.5°F2.5°C 33.9°F1.1°C 90% Calm Calm -- 30.17 in1021.7 mb 0.01 in0.3 mm 0.00 in/hr0.0 mm/hr 0.01 in0.3 mm
05:10 AM 36.5°F2.5°C 33.9°F1.1°C 90% Calm Calm -- 30.17 in1021.7 mb 0.01 in0.3 mm 0.12 in/hr3.0 mm/hr 0.01 in0.3 mm
05:05 AM 36.6°F2.6°C 34.0°F1.1°C 90% Calm Calm -- 30.17 in1021.7 mb 0.00 in0.0 mm 0.00 in/hr0.0 mm/hr 0.00 in0.0 mm
05:00 AM 36.6°F2.6°C 34.0°F1.1°C 90% Calm Calm -- 30.17 in1021.7 mb 0.00 in0.0 mm 0.00 in/hr0.0 mm/hr 0.00 in0.0 mm
04:55 AM 36.7°F2.6°C 34.1°F1.2°C 90% Calm Calm -- 30.18 in1022.0 mb 0.00 in0.0 mm 0.00 in/hr0.0 mm/hr 0.00 in0.0 mm
04:50 AM 36.8°F2.7°C 34.2°F1.2°C 90% Calm Calm -- 30.17 in1021.7 mb 0.00 in0.0 mm 0.00 in/hr0.0 mm/hr 0.00 in0.0 mm
04:45 AM 36.8°F2.7°C 34.2°F1.2°C 90% Calm Calm -- 30.17 in1021.7 mb 0.00 in0.0 mm 0.00 in/hr0.0 mm/hr 0.00 in0.0 mm
04:40 AM 36.9°F2.7°C 34.3°F1.3°C 90% Calm Calm -- 30.17 in1021.7 mb 0.00 in0.0 mm 0.00 in/hr0.0 mm/hr 0.00 in0.0 mm
04:35 AM 36.8°F2.7°C 34.2°F1.2°C 90% Calm Calm -- 30.17 in1021.7 mb 0.00 in0.0 mm 0.00 in/hr0.0 mm/hr 0.00 in0.0 mm
04:30 AM 36.9°F2.7°C 34.3°F1.3°C 90% Calm Calm -- 30.17 in1021.7 mb 0.00 in0.0 mm 0.00 in/hr0.0 mm/hr 0.00 in0.0 mm
04:25 AM 37.0°F2.8°C 34.4°F1.3°C 90% Calm Calm -- 30.17 in1021.7 mb 0.00 in0.0 mm 0.00 in/hr0.0 mm/hr 0.00 in0.0 mm
04:20 AM 37.1°F2.8°C 34.4°F1.3°C 90% Calm Calm -- 30.17 in1021.7 mb 0.00 in0.0 mm 0.00 in/hr0.0 mm/hr 0.00 in0.0 mm
04:15 AM 37.2°F2.9°C 34.5°F1.4°C 90% Calm Calm -- 30.17 in1021.7 mb 0.00 in0.0 mm 0.00 in/hr0.0 mm/hr 0.00 in0.0 mm
04:10 AM 37.3°F2.9°C 34.6°F1.4°C 90% Calm Calm -- 30.17 in1021.7 mb 0.00 in0.0 mm 0.00 in/hr0.0 mm/hr 0.00 in0.0 mm
04:05 AM 37.4°F3.0°C 34.7°F1.5°C 90% Calm Calm -- 30.16 in1021.3 mb 0.00 in0.0 mm 0.00 in/hr0.0 mm/hr 0.00 in0.0 mm
04:00 AM 37.4°F3.0°C 34.7°F1.5°C 90% Calm Calm -- 30.16 in1021.3 mb 0.00 in0.0 mm 0.00 in/hr0.0 mm/hr 0.00 in0.0 mm
03:55 AM 37.5°F3.1°C 34.8°F1.6°C 90% Calm Calm -- 30.16 in1021.3 mb 0.00 in0.0 mm 0.00 in/hr0.0 mm/hr 0.00 in0.0 mm
03:50 AM 37.5°F3.1°C 34.8°F1.6°C 90% Calm Calm -- 30.16 in1021.3 mb 0.00 in0.0 mm 0.00 in/hr0.0 mm/hr 0.00 in0.0 mm
03:45 AM 37.6°F3.1°C 34.9°F1.6°C 90% Calm Calm -- 30.16 in1021.3 mb 0.00 in0.0 mm 0.00 in/hr0.0 mm/hr 0.00 in0.0 mm
03:40 AM 37.6°F3.1°C 34.9°F1.6°C 90% Calm Calm -- 30.16 in1021.3 mb 0.00 in0.0 mm 0.00 in/hr0.0 mm/hr 0.00 in0.0 mm
03:35 AM 37.7°F3.2°C 35.0°F1.7°C 90% Calm Calm -- 30.16 in1021.3 mb 0.00 in0.0 mm 0.00 in/hr0.0 mm/hr 0.00 in0.0 mm
03:30 AM 37.7°F3.2°C 35.0°F1.7°C 90% Calm Calm 2.0 mph3.2 kmh 30.16 in1021.3 mb 0.00 in0.0 mm 0.00 in/hr0.0 mm/hr 0.00 in0.0 mm
03:25 AM 37.8°F3.2°C 35.1°F1.7°C 90% Calm Calm -- 30.16 in1021.3 mb 0.00 in0.0 mm 0.00 in/hr0.0 mm/hr 0.00 in0.0 mm
03:20 AM 37.9°F3.3°C 35.2°F1.8°C 90% Calm Calm -- 30.15 in1021.0 mb 0.00 in0.0 mm 0.00 in/hr0.0 mm/hr 0.00 in0.0 mm
03:15 AM 37.9°F3.3°C 35.2°F1.8°C 90% Calm Calm -- 30.15 in1021.0 mb 0.00 in0.0 mm 0.00 in/hr0.0 mm/hr 0.00 in0.0 mm
03:10 AM 38.0°F3.3°C 35.3°F1.8°C 90% Calm Calm -- 30.15 in1021.0 mb 0.00 in0.0 mm 0.00 in/hr0.0 mm/hr 0.00 in0.0 mm
03:05 AM 38.1°F3.4°C 35.4°F1.9°C 90% Calm Calm -- 30.15 in1021.0 mb 0.00 in0.0 mm 0.00 in/hr0.0 mm/hr 0.00 in0.0 mm
03:00 AM 38.2°F3.4°C 35.5°F1.9°C 90% Calm Calm -- 30.15 in1021.0 mb 0.00 in0.0 mm 0.00 in/hr0.0 mm/hr 0.00 in0.0 mm
02:55 AM 38.3°F3.5°C 35.6°F2.0°C 90% Calm Calm -- 30.15 in1021.0 mb 0.00 in0.0 mm 0.00 in/hr0.0 mm/hr 0.00 in0.0 mm
02:50 AM 38.3°F3.5°C 35.6°F2.0°C 90% Calm Calm -- 30.15 in1021.0 mb 0.00 in0.0 mm 0.00 in/hr0.0 mm/hr 0.00 in0.0 mm
02:45 AM 38.4°F3.6°C 35.7°F2.1°C 90% Calm Calm -- 30.15 in1021.0 mb 0.00 in0.0 mm 0.00 in/hr0.0 mm/hr 0.00 in0.0 mm
02:40 AM 38.5°F3.6°C 35.8°F2.1°C 90% Calm Calm -- 30.15 in1021.0 mb 0.00 in0.0 mm 0.00 in/hr0.0 mm/hr 0.00 in0.0 mm
02:35 AM 38.6°F3.7°C 35.9°F2.2°C 90% Calm Calm -- 30.15 in1021.0 mb 0.00 in0.0 mm 0.00 in/hr0.0 mm/hr 0.00 in0.0 mm
02:30 AM 38.6°F3.7°C 35.9°F2.2°C 90% Calm Calm -- 30.15 in1021.0 mb 0.00 in0.0 mm 0.00 in/hr0.0 mm/hr 0.00 in0.0 mm
02:25 AM 38.7°F3.7°C 36.0°F2.2°C 90% Calm Calm -- 30.15 in1021.0 mb 0.00 in0.0 mm 0.00 in/hr0.0 mm/hr 0.00 in0.0 mm
02:20 AM 38.8°F3.8°C 36.1°F2.3°C 90% Calm Calm -- 30.15 in1021.0 mb 0.00 in0.0 mm 0.00 in/hr0.0 mm/hr 0.00 in0.0 mm
02:15 AM 38.9°F3.8°C 36.2°F2.3°C 90% Calm Calm -- 30.15 in1021.0 mb 0.00 in0.0 mm 0.00 in/hr0.0 mm/hr 0.00 in0.0 mm
02:10 AM 39.0°F3.9°C 36.3°F2.4°C 90% Calm Calm -- 30.15 in1021.0 mb 0.00 in0.0 mm 0.00 in/hr0.0 mm/hr 0.00 in0.0 mm
02:05 AM 39.0°F3.9°C 36.3°F2.4°C 90% Calm Calm -- 30.15 in1021.0 mb 0.00 in0.0 mm 0.00 in/hr0.0 mm/hr 0.00 in0.0 mm
02:00 AM 39.1°F3.9°C 36.4°F2.4°C 90% Calm Calm -- 30.15 in1021.0 mb 0.00 in0.0 mm 0.00 in/hr0.0 mm/hr 0.00 in0.0 mm
01:55 AM 39.2°F4.0°C 36.5°F2.5°C 90% Calm Calm -- 30.16 in1021.3 mb 0.00 in0.0 mm 0.00 in/hr0.0 mm/hr 0.00 in0.0 mm
01:50 AM 39.2°F4.0°C 36.5°F2.5°C 90% Calm Calm -- 30.16 in1021.3 mb 0.00 in0.0 mm 0.00 in/hr0.0 mm/hr 0.00 in0.0 mm
01:45 AM 39.3°F4.1°C 36.6°F2.6°C 90% Calm Calm -- 30.16 in1021.3 mb 0.00 in0.0 mm 0.00 in/hr0.0 mm/hr 0.00 in0.0 mm
01:40 AM 39.4°F4.1°C 36.7°F2.6°C 90% Calm Calm -- 30.16 in1021.3 mb 0.00 in0.0 mm 0.00 in/hr0.0 mm/hr 0.00 in0.0 mm
01:35 AM 39.4°F4.1°C 36.4°F2.4°C 89% Calm Calm -- 30.16 in1021.3 mb 0.00 in0.0 mm 0.00 in/hr0.0 mm/hr 0.00 in0.0 mm
01:30 AM 39.4°F4.1°C 36.7°F2.6°C 90% Calm Calm 2.0 mph3.2 kmh 30.16 in1021.3 mb 0.00 in0.0 mm 0.00 in/hr0.0 mm/hr 0.00 in0.0 mm
01:25 AM 39.6°F4.2°C 36.9°F2.7°C 90% Calm Calm 2.0 mph3.2 kmh 30.16 in1021.3 mb 0.00 in0.0 mm 0.00 in/hr0.0 mm/hr 0.00 in0.0 mm
01:20 AM 39.7°F4.3°C 37.0°F2.8°C 90% Calm Calm 1.0 mph1.6 kmh 30.16 in1021.3 mb 0.00 in0.0 mm 0.00 in/hr0.0 mm/hr 0.00 in0.0 mm
01:15 AM 39.8°F4.3°C 36.8°F2.7°C 89% Calm Calm 1.0 mph1.6 kmh 30.16 in1021.3 mb 0.00 in0.0 mm 0.00 in/hr0.0 mm/hr 0.00 in0.0 mm
01:10 AM 39.9°F4.4°C 36.9°F2.7°C 89% Calm Calm -- 30.16 in1021.3 mb 0.00 in0.0 mm 0.00 in/hr0.0 mm/hr 0.00 in0.0 mm
01:05 AM 40.0°F4.4°C 37.0°F2.8°C 89% Calm Calm -- 30.16 in1021.3 mb 0.00 in0.0 mm 0.00 in/hr0.0 mm/hr 0.00 in0.0 mm
01:00 AM 40.1°F4.5°C 37.4°F3.0°C 90% Calm Calm -- 30.16 in1021.3 mb 0.00 in0.0 mm 0.00 in/hr0.0 mm/hr 0.00 in0.0 mm
12:55 AM 40.2°F4.6°C 37.5°F3.1°C 90% Calm Calm -- 30.16 in1021.3 mb 0.00 in0.0 mm 0.00 in/hr0.0 mm/hr 0.00 in0.0 mm
12:50 AM 40.3°F4.6°C 37.6°F3.1°C 90% Calm Calm -- 30.16 in1021.3 mb 0.00 in0.0 mm 0.00 in/hr0.0 mm/hr 0.00 in0.0 mm
12:45 AM 40.4°F4.7°C 37.4°F3.0°C 89% Calm Calm -- 30.16 in1021.3 mb 0.00 in0.0 mm 0.00 in/hr0.0 mm/hr 0.00 in0.0 mm
12:40 AM 40.5°F4.7°C 37.5°F3.1°C 89% Calm Calm -- 30.16 in1021.3 mb 0.00 in0.0 mm 0.00 in/hr0.0 mm/hr 0.00 in0.0 mm
12:35 AM 40.6°F4.8°C 37.6°F3.1°C 89% Calm Calm -- 30.16 in1021.3 mb 0.00 in0.0 mm 0.00 in/hr0.0 mm/hr 0.00 in0.0 mm
12:30 AM 40.7°F4.8°C 38.0°F3.3°C 90% Calm Calm -- 30.16 in1021.3 mb 0.00 in0.0 mm 0.00 in/hr0.0 mm/hr 0.00 in0.0 mm
12:25 AM 40.8°F4.9°C 38.1°F3.4°C 90% Calm Calm -- 30.16 in1021.3 mb 0.00 in0.0 mm 0.00 in/hr0.0 mm/hr 0.00 in0.0 mm
12:20 AM 40.9°F4.9°C 37.9°F3.3°C 89% Calm Calm -- 30.17 in1021.7 mb 0.00 in0.0 mm 0.00 in/hr0.0 mm/hr 0.00 in0.0 mm
12:15 AM 40.9°F4.9°C 37.9°F3.3°C 89% Calm Calm -- 30.16 in1021.3 mb 0.00 in0.0 mm 0.00 in/hr0.0 mm/hr 0.00 in0.0 mm
12:10 AM 41.0°F5.0°C 38.0°F3.3°C 89% Calm Calm -- 30.16 in1021.3 mb 0.00 in0.0 mm 0.00 in/hr0.0 mm/hr 0.00 in0.0 mm
12:05 AM 41.1°F5.1°C 38.1°F3.4°C 89% Calm Calm -- 30.16 in1021.3 mb 0.00 in0.0 mm 0.00 in/hr0.0 mm/hr 0.00 in0.0 mm
12:00 AM 41.2°F5.1°C 38.5°F3.6°C 90% Calm Calm -- 30.16 in1021.3 mb 0.00 in0.0 mm 0.00 in/hr0.0 mm/hr 0.00 in0.0 mm